Mammoth Spring, Arkansas
Current Conditions -  °F | °C
As of 9:53 AM on Wednesday 28 Jan 2015 (Local Time) from KUNO Reporting Station
Clear Clear  
Wind Chill: 32°   Ceiling: Unl
Heat Index: 39°   Visibility: 10mi
Dew Point: 30°   Wind: 12mph
Humidity: 70%   Direction: 160°SSE
Pressure: 30.21"   Gusts: NA
Location:  36.5°N, 91.54°W
Report Text: KUNO 281553Z AUTO 16010KT 10SM CLR 04/M01 A3021 RMK AO2 SLP236 T00391011
Loading
Personal Weather Stations






























Interactive Weather Map New forecast layout! Learn more

10-Day Weather Forecast

Advertisements
Track Severe Weather on mobile